Date,TemperatureHighF,TemperatureAvgF,TemperatureLowF,DewpointHighF,DewpointAvgF,DewpointLowF,HumidityHigh,HumidityAvg,HumidityLow,PressureMaxIn,PressureMinIn,WindSpeedMaxMPH,WindSpeedAvgMPH,GustSpeedMaxMPH,PrecipitationSumIn
2013-4-1,47.4,37.1,27.8,41.3,28.6,12.1,82,72,40,29.51,29.25,19,2,23,0.00
2013-4-2,32.7,27.4,22.4,20.8,12.6,8.5,68,53,41,29.63,29.50,21,2,23,0.00
2013-4-3,40.7,30.3,22.9,15.4,11.6,7.5,63,47,27,29.90,29.62,24,3,31,0.00
2013-4-4,51.4,34.6,20.9,23.5,17.8,11.7,82,54,26,30.01,29.68,14,1,15,0.00
2013-4-5,52.9,37.5,27.1,29.3,24.8,20.0,89,63,31,29.68,29.43,13,1,16,0.00
2013-4-6,41.8,30.3,22.8,20.0,11.2,4.5,76,47,23,30.02,29.63,17,1,19,0.00
2013-4-7,56.8,37.7,21.4,34.9,24.5,16.1,82,61,35,30.01,29.61,18,1,21,0.00
2013-4-8,61.6,45.5,33.0,36.4,33.1,28.3,88,65,35,29.82,29.64,8,0,13,0.00
2013-4-9,61.6,47.8,38.9,45.8,39.2,33.2,82,73,49,29.75,29.59,16,1,16,0.00
2013-4-10,53.7,46.4,42.3,46.3,40.1,36.2,82,79,75,29.72,29.59,6,0,6,0.00
2013-4-11,43.1,38.5,33.4,36.7,30.6,23.5,82,74,53,29.90,29.61,14,0,15,0.00
2013-4-12,33.9,31.8,29.5,29.7,26.4,23.6,89,80,70,29.90,29.61,8,0,12,0.00
2013-4-13,52.2,39.0,31.5,38.5,31.6,26.0,81,75,54,29.66,29.52,13,0,13,0.00
2013-4-14,47.2,37.7,28.5,36.3,29.6,23.3,85,73,50,29.97,29.64,14,1,18,0.00
2013-4-15,59.0,41.4,24.6,36.8,29.6,19.6,81,66,40,30.11,29.97,11,0,15,0.00
2013-4-16,61.2,49.7,38.2,50.8,40.7,31.6,81,72,56,30.05,29.70,15,1,17,0.00
2013-4-17,59.7,47.9,31.9,43.9,33.4,26.8,82,60,33,30.08,29.75,14,1,17,0.00
2013-4-18,62.6,45.2,27.6,40.8,30.4,22.2,82,59,39,30.15,29.80,17,1,19,0.00
2013-4-19,70.7,59.5,49.4,59.7,51.0,41.0,79,74,63,29.80,29.23,22,2,25,0.00
2013-4-20,52.7,43.5,34.3,44.5,30.7,18.3,79,62,41,29.97,29.33,19,2,25,0.00
2013-4-21,50.1,36.8,25.3,23.0,18.8,14.0,80,51,28,30.41,29.96,14,1,15,0.00
2013-4-22,55.6,38.5,23.4,28.8,21.9,17.6,83,56,30,30.48,30.28,12,1,14,0.00
2013-4-23,40.1,35.4,27.4,34.2,29.7,21.9,82,79,76,30.32,29.91,6,0,6,0.00
2013-4-24,75.1,55.3,38.7,47.9,40.6,31.4,80,61,34,29.92,29.42,13,1,14,0.00
2013-4-25,56.8,47.5,31.0,47.7,31.8,21.8,81,57,27,30.01,29.42,20,2,22,0.00
2013-4-26,58.4,43.1,26.8,35.8,29.3,21.7,82,62,36,30.16,30.01,9,0,10,0.00
2013-4-27,66.5,47.1,30.4,39.8,30.7,23.9,81,58,21,30.17,29.99,8,0,10,0.00
2013-4-28,72.8,51.5,29.6,39.9,33.0,23.9,81,54,26,30.06,29.84,12,0,13,0.00
2013-4-29,66.8,55.0,43.1,43.6,36.9,31.3,70,51,35,29.95,29.86,14,1,17,0.00
2013-4-30,73.0,58.4,44.3,43.1,37.2,28.7,78,47,30,30.04,29.93,12,0,13,0.00